sensor_id;sensor_type;location;lat;lon;timestamp;P1;durP1;ratioP1;P2;durP2;ratioP2
80963;SDS011;70425;59.322;13.486;2023-07-20T00:01:56;8.70;;;2.40;;
80963;SDS011;70425;59.322;13.486;2023-07-20T00:04:44;7.90;;;2.80;;
80963;SDS011;70425;59.322;13.486;2023-07-20T00:07:33;16.13;;;3.00;;
80963;SDS011;70425;59.322;13.486;2023-07-20T00:10:22;10.97;;;2.60;;
80963;SDS011;70425;59.322;13.486;2023-07-20T00:13:11;10.97;;;2.50;;
80963;SDS011;70425;59.322;13.486;2023-07-20T00:16:02;8.57;;;2.30;;
80963;SDS011;70425;59.322;13.486;2023-07-20T00:18:51;7.60;;;2.30;;
80963;SDS011;70425;59.322;13.486;2023-07-20T00:21:40;6.77;;;2.20;;
80963;SDS011;70425;59.322;13.486;2023-07-20T00:24:29;7.03;;;2.07;;
80963;SDS011;70425;59.322;13.486;2023-07-20T00:27:18;9.07;;;2.00;;
80963;SDS011;70425;59.322;13.486;2023-07-20T00:32:47;5.90;;;2.23;;
80963;SDS011;70425;59.322;13.486;2023-07-20T00:35:36;10.10;;;2.23;;
80963;SDS011;70425;59.322;13.486;2023-07-20T00:38:24;9.93;;;1.90;;
80963;SDS011;70425;59.322;13.486;2023-07-20T00:41:13;7.40;;;2.03;;
80963;SDS011;70425;59.322;13.486;2023-07-20T00:43:54;6.53;;;2.17;;
80963;SDS011;70425;59.322;13.486;2023-07-20T00:46:43;6.90;;;2.20;;
80963;SDS011;70425;59.322;13.486;2023-07-20T00:49:32;12.40;;;2.43;;
80963;SDS011;70425;59.322;13.486;2023-07-20T00:52:21;9.17;;;2.33;;
80963;SDS011;70425;59.322;13.486;2023-07-20T00:55:11;8.23;;;2.30;;
80963;SDS011;70425;59.322;13.486;2023-07-20T00:58:00;7.60;;;2.10;;
80963;SDS011;70425;59.322;13.486;2023-07-20T01:00:48;10.57;;;2.30;;
80963;SDS011;70425;59.322;13.486;2023-07-20T01:06:24;8.10;;;2.33;;
80963;SDS011;70425;59.322;13.486;2023-07-20T01:11:58;8.80;;;2.00;;
80963;SDS011;70425;59.322;13.486;2023-07-20T01:14:46;5.90;;;1.80;;
80963;SDS011;70425;59.322;13.486;2023-07-20T01:17:36;6.17;;;1.83;;
80963;SDS011;70425;59.322;13.486;2023-07-20T01:20:25;10.43;;;2.10;;
80963;SDS011;70425;59.322;13.486;2023-07-20T01:23:26;5.17;;;2.10;;
80963;SDS011;70425;59.322;13.486;2023-07-20T01:26:26;6.77;;;2.27;;
80963;SDS011;70425;59.322;13.486;2023-07-20T01:29:27;7.10;;;2.17;;
80963;SDS011;70425;59.322;13.486;2023-07-20T01:32:21;6.60;;;2.20;;
80963;SDS011;70425;59.322;13.486;2023-07-20T01:35:13;7.07;;;2.03;;
80963;SDS011;70425;59.322;13.486;2023-07-20T01:38:03;6.13;;;1.73;;
80963;SDS011;70425;59.322;13.486;2023-07-20T01:40:53;7.47;;;1.83;;
80963;SDS011;70425;59.322;13.486;2023-07-20T01:43:41;5.60;;;2.27;;
80963;SDS011;70425;59.322;13.486;2023-07-20T01:46:30;11.77;;;2.30;;
80963;SDS011;70425;59.322;13.486;2023-07-20T01:49:19;7.83;;;2.00;;
80963;SDS011;70425;59.322;13.486;2023-07-20T01:52:07;7.33;;;2.00;;
80963;SDS011;70425;59.322;13.486;2023-07-20T01:54:56;8.70;;;1.80;;
80963;SDS011;70425;59.322;13.486;2023-07-20T01:57:44;4.33;;;2.03;;
80963;SDS011;70425;59.322;13.486;2023-07-20T02:03:13;10.60;;;2.03;;
80963;SDS011;70425;59.322;13.486;2023-07-20T02:06:01;7.00;;;1.90;;
80963;SDS011;70425;59.322;13.486;2023-07-20T02:08:50;8.53;;;1.80;;
80963;SDS011;70425;59.322;13.486;2023-07-20T02:11:31;5.67;;;1.80;;
80963;SDS011;70425;59.322;13.486;2023-07-20T02:14:20;6.70;;;2.00;;
80963;SDS011;70425;59.322;13.486;2023-07-20T02:17:08;7.33;;;1.90;;
80963;SDS011;70425;59.322;13.486;2023-07-20T02:19:57;4.50;;;2.40;;
80963;SDS011;70425;59.322;13.486;2023-07-20T02:22:46;2.97;;;1.73;;
80963;SDS011;70425;59.322;13.486;2023-07-20T02:25:35;7.50;;;2.07;;
80963;SDS011;70425;59.322;13.486;2023-07-20T02:28:24;4.87;;;1.70;;
80963;SDS011;70425;59.322;13.486;2023-07-20T02:31:13;7.13;;;1.97;;
80963;SDS011;70425;59.322;13.486;2023-07-20T02:33:54;13.17;;;2.07;;
80963;SDS011;70425;59.322;13.486;2023-07-20T02:39:27;10.40;;;2.00;;
80963;SDS011;70425;59.322;13.486;2023-07-20T02:42:17;7.27;;;2.20;;
80963;SDS011;70425;59.322;13.486;2023-07-20T02:45:07;5.50;;;1.50;;
80963;SDS011;70425;59.322;13.486;2023-07-20T02:47:57;5.13;;;1.70;;
80963;SDS011;70425;59.322;13.486;2023-07-20T02:50:38;7.73;;;1.73;;
80963;SDS011;70425;59.322;13.486;2023-07-20T02:53:27;4.60;;;1.60;;
80963;SDS011;70425;59.322;13.486;2023-07-20T02:56:16;3.80;;;1.60;;
80963;SDS011;70425;59.322;13.486;2023-07-20T02:59:04;2.23;;;1.47;;
80963;SDS011;70425;59.322;13.486;2023-07-20T03:01:53;5.03;;;1.67;;
80963;SDS011;70425;59.322;13.486;2023-07-20T03:04:43;3.17;;;1.67;;
80963;SDS011;70425;59.322;13.486;2023-07-20T03:07:31;3.97;;;1.40;;
80963;SDS011;70425;59.322;13.486;2023-07-20T03:10:20;4.87;;;1.50;;
80963;SDS011;70425;59.322;13.486;2023-07-20T03:13:09;4.03;;;1.50;;
80963;SDS011;70425;59.322;13.486;2023-07-20T03:15:58;4.27;;;1.40;;
80963;SDS011;70425;59.322;13.486;2023-07-20T03:18:47;4.83;;;1.40;;
80963;SDS011;70425;59.322;13.486;2023-07-20T03:24:15;5.17;;;1.30;;
80963;SDS011;70425;59.322;13.486;2023-07-20T03:27:04;3.10;;;1.37;;
80963;SDS011;70425;59.322;13.486;2023-07-20T03:29:54;4.27;;;1.30;;
80963;SDS011;70425;59.322;13.486;2023-07-20T03:32:42;5.53;;;1.37;;
80963;SDS011;70425;59.322;13.486;2023-07-20T03:35:31;2.40;;;1.37;;
80963;SDS011;70425;59.322;13.486;2023-07-20T03:38:20;4.67;;;1.40;;
80963;SDS011;70425;59.322;13.486;2023-07-20T03:41:08;3.43;;;1.50;;
80963;SDS011;70425;59.322;13.486;2023-07-20T03:43:57;2.47;;;1.30;;
80963;SDS011;70425;59.322;13.486;2023-07-20T03:46:46;2.10;;;1.30;;
80963;SDS011;70425;59.322;13.486;2023-07-20T03:49:26;2.87;;;1.37;;
80963;SDS011;70425;59.322;13.486;2023-07-20T03:52:15;4.20;;;1.60;;
80963;SDS011;70425;59.322;13.486;2023-07-20T03:57:44;2.57;;;1.40;;
80963;SDS011;70425;59.322;13.486;2023-07-20T04:00:33;1.73;;;1.10;;
80963;SDS011;70425;59.322;13.486;2023-07-20T04:03:22;2.83;;;1.10;;
80963;SDS011;70425;59.322;13.486;2023-07-20T04:06:12;3.13;;;1.30;;
80963;SDS011;70425;59.322;13.486;2023-07-20T04:09:03;2.27;;;1.30;;
80963;SDS011;70425;59.322;13.486;2023-07-20T04:11:52;2.83;;;1.10;;
80963;SDS011;70425;59.322;13.486;2023-07-20T04:14:41;2.10;;;1.20;;
80963;SDS011;70425;59.322;13.486;2023-07-20T04:17:29;3.90;;;1.70;;
80963;SDS011;70425;59.322;13.486;2023-07-20T04:20:18;4.20;;;1.30;;
80963;SDS011;70425;59.322;13.486;2023-07-20T04:23:07;2.87;;;1.17;;
80963;SDS011;70425;59.322;13.486;2023-07-20T04:25:56;2.70;;;1.43;;
80963;SDS011;70425;59.322;13.486;2023-07-20T04:28:44;3.70;;;1.30;;
80963;SDS011;70425;59.322;13.486;2023-07-20T04:31:33;2.27;;;1.20;;
80963;SDS011;70425;59.322;13.486;2023-07-20T04:37:01;2.07;;;1.10;;
80963;SDS011;70425;59.322;13.486;2023-07-20T04:42:34;1.20;;;1.10;;
80963;SDS011;70425;59.322;13.486;2023-07-20T04:45:22;2.50;;;1.00;;
80963;SDS011;70425;59.322;13.486;2023-07-20T04:48:12;7.83;;;3.30;;
80963;SDS011;70425;59.322;13.486;2023-07-20T04:51:02;7.10;;;3.97;;
80963;SDS011;70425;59.322;13.486;2023-07-20T04:53:51;6.27;;;2.93;;
80963;SDS011;70425;59.322;13.486;2023-07-20T04:56:40;5.53;;;2.50;;
80963;SDS011;70425;59.322;13.486;2023-07-20T04:59:25;3.57;;;1.87;;
80963;SDS011;70425;59.322;13.486;2023-07-20T05:02:14;1.40;;;1.30;;
80963;SDS011;70425;59.322;13.486;2023-07-20T05:05:03;1.40;;;1.20;;
80963;SDS011;70425;59.322;13.486;2023-07-20T05:07:53;1.37;;;1.10;;
80963;SDS011;70425;59.322;13.486;2023-07-20T05:10:41;6.77;;;3.60;;
80963;SDS011;70425;59.322;13.486;2023-07-20T05:13:30;3.53;;;2.10;;
80963;SDS011;70425;59.322;13.486;2023-07-20T05:16:19;1.67;;;1.50;;
80963;SDS011;70425;59.322;13.486;2023-07-20T05:19:07;1.73;;;1.10;;
80963;SDS011;70425;59.322;13.486;2023-07-20T05:21:51;3.60;;;1.20;;
80963;SDS011;70425;59.322;13.486;2023-07-20T05:24:40;1.93;;;1.33;;
80963;SDS011;70425;59.322;13.486;2023-07-20T05:27:29;1.10;;;1.00;;
80963;SDS011;70425;59.322;13.486;2023-07-20T05:30:17;1.07;;;0.97;;
80963;SDS011;70425;59.322;13.486;2023-07-20T05:33:06;2.43;;;0.90;;
80963;SDS011;70425;59.322;13.486;2023-07-20T05:35:55;2.10;;;1.10;;
80963;SDS011;70425;59.322;13.486;2023-07-20T05:38:43;1.20;;;1.10;;
80963;SDS011;70425;59.322;13.486;2023-07-20T05:41:32;1.30;;;1.20;;
80963;SDS011;70425;59.322;13.486;2023-07-20T05:44:20;1.77;;;1.00;;
80963;SDS011;70425;59.322;13.486;2023-07-20T05:47:09;2.40;;;1.20;;
80963;SDS011;70425;59.322;13.486;2023-07-20T05:49:57;2.70;;;1.00;;
80963;SDS011;70425;59.322;13.486;2023-07-20T05:52:46;2.53;;;1.00;;
80963;SDS011;70425;59.322;13.486;2023-07-20T05:55:32;4.33;;;1.13;;
80963;SDS011;70425;59.322;13.486;2023-07-20T06:01:01;2.50;;;1.20;;
80963;SDS011;70425;59.322;13.486;2023-07-20T06:03:51;2.43;;;1.10;;
80963;SDS011;70425;59.322;13.486;2023-07-20T06:06:40;2.20;;;1.00;;
80963;SDS011;70425;59.322;13.486;2023-07-20T06:09:29;3.10;;;1.10;;
80963;SDS011;70425;59.322;13.486;2023-07-20T06:12:18;0.90;;;0.90;;
80963;SDS011;70425;59.322;13.486;2023-07-20T06:15:23;2.97;;;0.97;;
80963;SDS011;70425;59.322;13.486;2023-07-20T06:18:12;1.10;;;1.10;;
80963;SDS011;70425;59.322;13.486;2023-07-20T06:21:01;2.50;;;1.23;;
80963;SDS011;70425;59.322;13.486;2023-07-20T06:23:50;1.03;;;0.93;;
80963;SDS011;70425;59.322;13.486;2023-07-20T06:26:38;1.97;;;1.00;;
80963;SDS011;70425;59.322;13.486;2023-07-20T06:29:27;1.00;;;1.00;;
80963;SDS011;70425;59.322;13.486;2023-07-20T06:32:15;2.33;;;1.00;;
80963;SDS011;70425;59.322;13.486;2023-07-20T06:35:05;1.53;;;1.00;;
80963;SDS011;70425;59.322;13.486;2023-07-20T06:37:55;2.07;;;0.90;;
80963;SDS011;70425;59.322;13.486;2023-07-20T06:40:46;1.43;;;1.00;;
80963;SDS011;70425;59.322;13.486;2023-07-20T06:43:35;1.57;;;1.00;;
80963;SDS011;70425;59.322;13.486;2023-07-20T06:46:24;1.13;;;0.90;;
80963;SDS011;70425;59.322;13.486;2023-07-20T06:49:06;3.07;;;1.10;;
80963;SDS011;70425;59.322;13.486;2023-07-20T06:51:55;1.07;;;0.97;;
80963;SDS011;70425;59.322;13.486;2023-07-20T06:54:44;1.17;;;1.03;;
80963;SDS011;70425;59.322;13.486;2023-07-20T06:57:33;2.37;;;0.90;;
80963;SDS011;70425;59.322;13.486;2023-07-20T07:00:22;1.37;;;0.90;;
80963;SDS011;70425;59.322;13.486;2023-07-20T07:03:11;4.37;;;1.10;;
80963;SDS011;70425;59.322;13.486;2023-07-20T07:06:00;1.07;;;0.97;;
80963;SDS011;70425;59.322;13.486;2023-07-20T07:08:48;3.23;;;1.10;;
80963;SDS011;70425;59.322;13.486;2023-07-20T07:11:37;1.17;;;1.07;;
80963;SDS011;70425;59.322;13.486;2023-07-20T07:14:19;1.60;;;1.17;;
80963;SDS011;70425;59.322;13.486;2023-07-20T07:17:09;2.27;;;0.80;;
80963;SDS011;70425;59.322;13.486;2023-07-20T07:19:57;1.10;;;0.97;;
80963;SDS011;70425;59.322;13.486;2023-07-20T07:25:25;0.80;;;0.80;;
80963;SDS011;70425;59.322;13.486;2023-07-20T07:28:14;2.40;;;1.20;;
80963;SDS011;70425;59.322;13.486;2023-07-20T07:30:55;0.80;;;0.80;;
80963;SDS011;70425;59.322;13.486;2023-07-20T07:33:44;0.97;;;0.77;;
80963;SDS011;70425;59.322;13.486;2023-07-20T07:36:32;1.23;;;0.90;;
80963;SDS011;70425;59.322;13.486;2023-07-20T07:39:12;1.43;;;0.80;;
80963;SDS011;70425;59.322;13.486;2023-07-20T07:42:01;0.90;;;0.90;;
80963;SDS011;70425;59.322;13.486;2023-07-20T07:44:51;0.93;;;0.90;;
80963;SDS011;70425;59.322;13.486;2023-07-20T07:47:39;0.97;;;0.90;;
80963;SDS011;70425;59.322;13.486;2023-07-20T07:53:07;0.87;;;0.87;;
80963;SDS011;70425;59.322;13.486;2023-07-20T07:55:56;0.90;;;0.90;;
80963;SDS011;70425;59.322;13.486;2023-07-20T08:01:24;0.90;;;0.90;;
80963;SDS011;70425;59.322;13.486;2023-07-20T08:04:13;1.80;;;0.90;;
80963;SDS011;70425;59.322;13.486;2023-07-20T08:07:03;1.00;;;1.00;;
80963;SDS011;70425;59.322;13.486;2023-07-20T08:09:53;0.80;;;0.80;;
80963;SDS011;70425;59.322;13.486;2023-07-20T08:12:42;1.03;;;0.90;;
80963;SDS011;70425;59.322;13.486;2023-07-20T08:15:30;0.87;;;0.80;;
80963;SDS011;70425;59.322;13.486;2023-07-20T08:18:19;2.93;;;0.87;;
80963;SDS011;70425;59.322;13.486;2023-07-20T08:21:07;0.77;;;0.77;;
80963;SDS011;70425;59.322;13.486;2023-07-20T08:23:48;0.80;;;0.80;;
80963;SDS011;70425;59.322;13.486;2023-07-20T08:26:37;0.93;;;0.80;;
80963;SDS011;70425;59.322;13.486;2023-07-20T08:29:25;0.93;;;0.83;;
80963;SDS011;70425;59.322;13.486;2023-07-20T08:34:53;2.93;;;1.00;;
80963;SDS011;70425;59.322;13.486;2023-07-20T08:37:41;0.80;;;0.80;;
80963;SDS011;70425;59.322;13.486;2023-07-20T08:40:30;0.67;;;0.67;;
80963;SDS011;70425;59.322;13.486;2023-07-20T08:43:11;1.37;;;0.80;;
80963;SDS011;70425;59.322;13.486;2023-07-20T08:46:02;0.87;;;0.87;;
80963;SDS011;70425;59.322;13.486;2023-07-20T08:48:51;1.30;;;0.67;;
80963;SDS011;70425;59.322;13.486;2023-07-20T08:51:42;4.20;;;0.87;;
80963;SDS011;70425;59.322;13.486;2023-07-20T08:54:32;2.07;;;0.70;;
80963;SDS011;70425;59.322;13.486;2023-07-20T08:57:23;0.70;;;0.70;;
80963;SDS011;70425;59.322;13.486;2023-07-20T09:00:12;0.70;;;0.70;;
80963;SDS011;70425;59.322;13.486;2023-07-20T09:03:03;0.70;;;0.70;;
80963;SDS011;70425;59.322;13.486;2023-07-20T09:05:52;0.63;;;0.63;;
80963;SDS011;70425;59.322;13.486;2023-07-20T09:08:42;0.87;;;0.70;;
80963;SDS011;70425;59.322;13.486;2023-07-20T09:11:31;0.77;;;0.60;;
80963;SDS011;70425;59.322;13.486;2023-07-20T09:14:19;0.70;;;0.70;;
80963;SDS011;70425;59.322;13.486;2023-07-20T09:17:10;0.93;;;0.83;;
80963;SDS011;70425;59.322;13.486;2023-07-20T09:20:05;0.80;;;0.80;;
80963;SDS011;70425;59.322;13.486;2023-07-20T09:22:51;0.83;;;0.80;;
80963;SDS011;70425;59.322;13.486;2023-07-20T09:29:03;0.67;;;0.67;;
80963;SDS011;70425;59.322;13.486;2023-07-20T09:45:58;0.67;;;0.67;;
80963;SDS011;70425;59.322;13.486;2023-07-20T09:52:45;0.70;;;0.70;;
80963;SDS011;70425;59.322;13.486;2023-07-20T09:55:34;0.60;;;0.57;;
80963;SDS011;70425;59.322;13.486;2023-07-20T09:58:23;0.67;;;0.67;;
80963;SDS011;70425;59.322;13.486;2023-07-20T10:01:14;0.50;;;0.50;;
80963;SDS011;70425;59.322;13.486;2023-07-20T10:04:08;1.33;;;0.70;;
80963;SDS011;70425;59.322;13.486;2023-07-20T10:09:44;4.90;;;0.80;;
80963;SDS011;70425;59.322;13.486;2023-07-20T10:12:35;0.60;;;0.60;;
80963;SDS011;70425;59.322;13.486;2023-07-20T10:15:24;0.57;;;0.57;;
80963;SDS011;70425;59.322;13.486;2023-07-20T10:18:17;1.33;;;0.50;;
80963;SDS011;70425;59.322;13.486;2023-07-20T10:21:10;0.70;;;0.70;;
80963;SDS011;70425;59.322;13.486;2023-07-20T10:24:00;0.60;;;0.60;;
80963;SDS011;70425;59.322;13.486;2023-07-20T10:26:50;1.90;;;0.67;;
80963;SDS011;70425;59.322;13.486;2023-07-20T10:29:39;0.50;;;0.50;;
80963;SDS011;70425;59.322;13.486;2023-07-20T10:32:29;0.70;;;0.70;;
80963;SDS011;70425;59.322;13.486;2023-07-20T10:35:18;0.73;;;0.67;;
80963;SDS011;70425;59.322;13.486;2023-07-20T10:38:07;0.60;;;0.60;;
80963;SDS011;70425;59.322;13.486;2023-07-20T10:44:45;0.60;;;0.60;;
80963;SDS011;70425;59.322;13.486;2023-07-20T10:47:34;0.53;;;0.53;;
80963;SDS011;70425;59.322;13.486;2023-07-20T10:50:33;2.10;;;0.60;;
80963;SDS011;70425;59.322;13.486;2023-07-20T10:53:23;0.60;;;0.60;;
80963;SDS011;70425;59.322;13.486;2023-07-20T10:56:12;0.70;;;0.70;;
80963;SDS011;70425;59.322;13.486;2023-07-20T11:01:47;1.37;;;0.50;;
80963;SDS011;70425;59.322;13.486;2023-07-20T11:04:39;1.70;;;0.70;;
80963;SDS011;70425;59.322;13.486;2023-07-20T11:07:37;0.50;;;0.50;;
80963;SDS011;70425;59.322;13.486;2023-07-20T11:10:26;0.60;;;0.60;;
80963;SDS011;70425;59.322;13.486;2023-07-20T11:13:18;0.70;;;0.70;;
80963;SDS011;70425;59.322;13.486;2023-07-20T11:16:09;0.60;;;0.60;;
80963;SDS011;70425;59.322;13.486;2023-07-20T11:18:57;0.50;;;0.50;;
80963;SDS011;70425;59.322;13.486;2023-07-20T11:21:51;1.90;;;0.50;;
80963;SDS011;70425;59.322;13.486;2023-07-20T11:24:39;0.50;;;0.50;;
80963;SDS011;70425;59.322;13.486;2023-07-20T11:27:28;0.50;;;0.50;;
80963;SDS011;70425;59.322;13.486;2023-07-20T11:30:18;0.60;;;0.60;;
80963;SDS011;70425;59.322;13.486;2023-07-20T11:33:07;0.70;;;0.70;;
80963;SDS011;70425;59.322;13.486;2023-07-20T11:38:49;1.93;;;0.70;;
80963;SDS011;70425;59.322;13.486;2023-07-20T11:41:39;0.60;;;0.60;;
80963;SDS011;70425;59.322;13.486;2023-07-20T11:44:39;0.60;;;0.60;;
80963;SDS011;70425;59.322;13.486;2023-07-20T12:01:24;1.07;;;0.70;;
80963;SDS011;70425;59.322;13.486;2023-07-20T12:04:15;0.60;;;0.60;;
80963;SDS011;70425;59.322;13.486;2023-07-20T12:07:06;0.53;;;0.53;;
80963;SDS011;70425;59.322;13.486;2023-07-20T12:10:10;0.60;;;0.60;;
80963;SDS011;70425;59.322;13.486;2023-07-20T12:26:46;0.60;;;0.60;;
80963;SDS011;70425;59.322;13.486;2023-07-20T12:32:17;0.60;;;0.60;;
80963;SDS011;70425;59.322;13.486;2023-07-20T12:35:07;0.73;;;0.60;;
80963;SDS011;70425;59.322;13.486;2023-07-20T12:37:58;0.50;;;0.50;;
80963;SDS011;70425;59.322;13.486;2023-07-20T12:40:47;0.60;;;0.60;;
80963;SDS011;70425;59.322;13.486;2023-07-20T12:43:36;0.87;;;0.60;;
80963;SDS011;70425;59.322;13.486;2023-07-20T13:01:50;2.13;;;0.50;;
80963;SDS011;70425;59.322;13.486;2023-07-20T13:04:39;0.50;;;0.50;;
80963;SDS011;70425;59.322;13.486;2023-07-20T13:08:29;0.60;;;0.60;;
80963;SDS011;70425;59.322;13.486;2023-07-20T13:15:41;1.17;;;0.50;;
80963;SDS011;70425;59.322;13.486;2023-07-20T13:18:29;0.70;;;0.70;;
80963;SDS011;70425;59.322;13.486;2023-07-20T13:21:18;0.40;;;0.40;;
80963;SDS011;70425;59.322;13.486;2023-07-20T13:50:53;0.50;;;0.50;;
80963;SDS011;70425;59.322;13.486;2023-07-20T13:53:36;0.40;;;0.40;;
80963;SDS011;70425;59.322;13.486;2023-07-20T13:56:27;0.30;;;0.30;;
80963;SDS011;70425;59.322;13.486;2023-07-20T13:59:16;1.23;;;0.50;;
80963;SDS011;70425;59.322;13.486;2023-07-20T14:02:05;0.50;;;0.50;;
80963;SDS011;70425;59.322;13.486;2023-07-20T14:04:57;0.30;;;0.30;;
80963;SDS011;70425;59.322;13.486;2023-07-20T14:07:46;0.50;;;0.50;;
80963;SDS011;70425;59.322;13.486;2023-07-20T14:10:36;0.50;;;0.50;;
80963;SDS011;70425;59.322;13.486;2023-07-20T14:13:26;0.40;;;0.40;;
80963;SDS011;70425;59.322;13.486;2023-07-20T14:16:14;2.90;;;0.60;;
80963;SDS011;70425;59.322;13.486;2023-07-20T14:19:03;1.37;;;0.47;;
80963;SDS011;70425;59.322;13.486;2023-07-20T14:21:53;0.40;;;0.40;;
80963;SDS011;70425;59.322;13.486;2023-07-20T14:24:41;0.43;;;0.43;;
80963;SDS011;70425;59.322;13.486;2023-07-20T14:27:31;0.40;;;0.40;;
80963;SDS011;70425;59.322;13.486;2023-07-20T14:30:21;0.57;;;0.57;;
80963;SDS011;70425;59.322;13.486;2023-07-20T14:33:10;0.50;;;0.50;;
80963;SDS011;70425;59.322;13.486;2023-07-20T14:36:00;0.43;;;0.43;;
80963;SDS011;70425;59.322;13.486;2023-07-20T14:38:49;0.77;;;0.60;;
80963;SDS011;70425;59.322;13.486;2023-07-20T14:45:28;0.77;;;0.50;;
80963;SDS011;70425;59.322;13.486;2023-07-20T14:51:10;0.43;;;0.40;;
80963;SDS011;70425;59.322;13.486;2023-07-20T14:53:58;0.60;;;0.40;;
80963;SDS011;70425;59.322;13.486;2023-07-20T14:56:51;0.40;;;0.40;;
80963;SDS011;70425;59.322;13.486;2023-07-20T14:59:42;0.50;;;0.50;;
80963;SDS011;70425;59.322;13.486;2023-07-20T15:02:30;0.57;;;0.57;;
80963;SDS011;70425;59.322;13.486;2023-07-20T15:05:11;0.50;;;0.50;;
80963;SDS011;70425;59.322;13.486;2023-07-20T15:08:04;1.90;;;0.33;;
80963;SDS011;70425;59.322;13.486;2023-07-20T15:10:57;0.40;;;0.40;;
80963;SDS011;70425;59.322;13.486;2023-07-20T15:14:04;0.50;;;0.50;;
80963;SDS011;70425;59.322;13.486;2023-07-20T15:17:04;0.60;;;0.60;;
80963;SDS011;70425;59.322;13.486;2023-07-20T15:20:15;0.40;;;0.40;;
80963;SDS011;70425;59.322;13.486;2023-07-20T15:23:05;0.63;;;0.53;;
80963;SDS011;70425;59.322;13.486;2023-07-20T15:25:58;0.40;;;0.40;;
80963;SDS011;70425;59.322;13.486;2023-07-20T15:28:47;1.07;;;0.50;;
80963;SDS011;70425;59.322;13.486;2023-07-20T15:31:41;0.50;;;0.50;;
80963;SDS011;70425;59.322;13.486;2023-07-20T15:34:46;0.30;;;0.30;;
80963;SDS011;70425;59.322;13.486;2023-07-20T15:37:40;0.80;;;0.30;;
80963;SDS011;70425;59.322;13.486;2023-07-20T15:40:43;0.40;;;0.40;;
80963;SDS011;70425;59.322;13.486;2023-07-20T15:43:43;0.30;;;0.30;;
80963;SDS011;70425;59.322;13.486;2023-07-20T15:49:36;0.40;;;0.40;;
80963;SDS011;70425;59.322;13.486;2023-07-20T15:52:27;0.50;;;0.50;;
80963;SDS011;70425;59.322;13.486;2023-07-20T15:55:21;0.40;;;0.40;;
80963;SDS011;70425;59.322;13.486;2023-07-20T16:28:36;0.67;;;0.50;;
80963;SDS011;70425;59.322;13.486;2023-07-20T16:46:54;0.60;;;0.60;;
80963;SDS011;70425;59.322;13.486;2023-07-20T17:00:34;0.83;;;0.60;;
80963;SDS011;70425;59.322;13.486;2023-07-20T17:03:39;0.40;;;0.40;;
80963;SDS011;70425;59.322;13.486;2023-07-20T17:24:52;0.33;;;0.33;;
80963;SDS011;70425;59.322;13.486;2023-07-20T17:30:55;2.13;;;0.80;;
80963;SDS011;70425;59.322;13.486;2023-07-20T17:34:10;1.93;;;0.73;;
80963;SDS011;70425;59.322;13.486;2023-07-20T17:37:10;0.80;;;0.80;;
80963;SDS011;70425;59.322;13.486;2023-07-20T17:40:20;0.90;;;0.90;;
80963;SDS011;70425;59.322;13.486;2023-07-20T17:43:29;0.60;;;0.60;;
80963;SDS011;70425;59.322;13.486;2023-07-20T17:46:38;0.60;;;0.60;;
80963;SDS011;70425;59.322;13.486;2023-07-20T17:49:31;0.97;;;0.60;;
80963;SDS011;70425;59.322;13.486;2023-07-20T17:52:27;0.60;;;0.60;;
80963;SDS011;70425;59.322;13.486;2023-07-20T17:55:21;0.60;;;0.60;;
80963;SDS011;70425;59.322;13.486;2023-07-20T17:58:12;0.60;;;0.60;;
80963;SDS011;70425;59.322;13.486;2023-07-20T18:01:06;0.60;;;0.60;;
80963;SDS011;70425;59.322;13.486;2023-07-20T18:04:08;0.60;;;0.60;;
80963;SDS011;70425;59.322;13.486;2023-07-20T18:06:56;0.60;;;0.60;;
80963;SDS011;70425;59.322;13.486;2023-07-20T18:09:46;0.70;;;0.70;;
80963;SDS011;70425;59.322;13.486;2023-07-20T18:12:38;0.60;;;0.60;;
80963;SDS011;70425;59.322;13.486;2023-07-20T18:18:47;4.10;;;0.70;;
80963;SDS011;70425;59.322;13.486;2023-07-20T18:21:36;0.70;;;0.60;;
80963;SDS011;70425;59.322;13.486;2023-07-20T18:24:27;5.47;;;0.83;;
80963;SDS011;70425;59.322;13.486;2023-07-20T18:30:41;0.97;;;0.80;;
